sensor_id;sensor_type;location;lat;lon;timestamp;P1;durP1;ratioP1;P2;durP2;ratioP2
54539;SDS011;40438;52.992;18.604;2023-06-10T00:01:10;7.25;;;5.18;;
54539;SDS011;40438;52.992;18.604;2023-06-10T00:03:36;6.97;;;5.40;;
54539;SDS011;40438;52.992;18.604;2023-06-10T00:06:03;8.73;;;5.70;;
54539;SDS011;40438;52.992;18.604;2023-06-10T00:08:29;10.63;;;6.63;;
54539;SDS011;40438;52.992;18.604;2023-06-10T00:10:55;12.98;;;5.78;;
54539;SDS011;40438;52.992;18.604;2023-06-10T00:13:21;8.85;;;5.47;;
54539;SDS011;40438;52.992;18.604;2023-06-10T00:15:47;16.23;;;6.00;;
54539;SDS011;40438;52.992;18.604;2023-06-10T00:18:13;7.88;;;5.35;;
54539;SDS011;40438;52.992;18.604;2023-06-10T00:20:38;9.40;;;5.80;;
54539;SDS011;40438;52.992;18.604;2023-06-10T00:23:06;11.18;;;5.88;;
54539;SDS011;40438;52.992;18.604;2023-06-10T00:25:31;11.15;;;5.78;;
54539;SDS011;40438;52.992;18.604;2023-06-10T00:27:57;10.27;;;5.30;;
54539;SDS011;40438;52.992;18.604;2023-06-10T00:30:23;7.07;;;4.97;;
54539;SDS011;40438;52.992;18.604;2023-06-10T00:32:49;11.38;;;6.22;;
54539;SDS011;40438;52.992;18.604;2023-06-10T00:35:15;8.80;;;6.30;;
54539;SDS011;40438;52.992;18.604;2023-06-10T00:37:40;13.77;;;6.53;;
54539;SDS011;40438;52.992;18.604;2023-06-10T00:40:09;9.82;;;6.30;;
54539;SDS011;40438;52.992;18.604;2023-06-10T00:42:36;8.70;;;5.95;;
54539;SDS011;40438;52.992;18.604;2023-06-10T00:45:02;8.27;;;6.53;;
54539;SDS011;40438;52.992;18.604;2023-06-10T00:47:28;9.65;;;5.70;;
54539;SDS011;40438;52.992;18.604;2023-06-10T00:49:54;8.68;;;6.43;;
54539;SDS011;40438;52.992;18.604;2023-06-10T00:52:23;14.40;;;6.47;;
54539;SDS011;40438;52.992;18.604;2023-06-10T00:54:52;9.57;;;6.25;;
54539;SDS011;40438;52.992;18.604;2023-06-10T00:57:19;10.05;;;6.20;;
54539;SDS011;40438;52.992;18.604;2023-06-10T00:59:46;10.73;;;6.72;;
54539;SDS011;40438;52.992;18.604;2023-06-10T01:02:13;18.75;;;6.95;;
54539;SDS011;40438;52.992;18.604;2023-06-10T01:04:39;9.38;;;6.10;;
54539;SDS011;40438;52.992;18.604;2023-06-10T01:07:06;10.73;;;6.68;;
54539;SDS011;40438;52.992;18.604;2023-06-10T01:09:41;11.65;;;6.38;;
54539;SDS011;40438;52.992;18.604;2023-06-10T01:12:12;9.70;;;6.32;;
54539;SDS011;40438;52.992;18.604;2023-06-10T01:14:45;9.93;;;5.90;;
54539;SDS011;40438;52.992;18.604;2023-06-10T01:17:12;8.98;;;6.30;;
54539;SDS011;40438;52.992;18.604;2023-06-10T01:19:38;8.63;;;6.07;;
54539;SDS011;40438;52.992;18.604;2023-06-10T01:22:06;11.65;;;6.25;;
54539;SDS011;40438;52.992;18.604;2023-06-10T01:24:31;9.52;;;6.03;;
54539;SDS011;40438;52.992;18.604;2023-06-10T01:26:59;12.27;;;6.60;;
54539;SDS011;40438;52.992;18.604;2023-06-10T01:29:28;10.32;;;5.80;;
54539;SDS011;40438;52.992;18.604;2023-06-10T01:32:00;8.40;;;6.20;;
54539;SDS011;40438;52.992;18.604;2023-06-10T01:34:31;10.73;;;6.05;;
54539;SDS011;40438;52.992;18.604;2023-06-10T01:36:58;9.27;;;5.60;;
54539;SDS011;40438;52.992;18.604;2023-06-10T01:39:26;10.38;;;5.82;;
54539;SDS011;40438;52.992;18.604;2023-06-10T01:41:52;7.90;;;5.22;;
54539;SDS011;40438;52.992;18.604;2023-06-10T01:44:19;10.38;;;5.35;;
54539;SDS011;40438;52.992;18.604;2023-06-10T01:46:46;10.25;;;5.53;;
54539;SDS011;40438;52.992;18.604;2023-06-10T01:49:11;10.60;;;5.80;;
54539;SDS011;40438;52.992;18.604;2023-06-10T01:51:37;12.48;;;5.53;;
54539;SDS011;40438;52.992;18.604;2023-06-10T01:54:03;8.68;;;5.03;;
54539;SDS011;40438;52.992;18.604;2023-06-10T01:56:30;10.18;;;5.25;;
54539;SDS011;40438;52.992;18.604;2023-06-10T01:58:56;8.23;;;5.68;;
54539;SDS011;40438;52.992;18.604;2023-06-10T02:01:22;7.97;;;5.00;;
54539;SDS011;40438;52.992;18.604;2023-06-10T02:03:48;9.88;;;5.30;;
54539;SDS011;40438;52.992;18.604;2023-06-10T02:06:14;7.07;;;4.93;;
54539;SDS011;40438;52.992;18.604;2023-06-10T02:08:39;9.38;;;5.07;;
54539;SDS011;40438;52.992;18.604;2023-06-10T02:11:05;8.52;;;5.15;;
54539;SDS011;40438;52.992;18.604;2023-06-10T02:13:32;9.32;;;5.53;;
54539;SDS011;40438;52.992;18.604;2023-06-10T02:15:58;9.48;;;5.03;;
54539;SDS011;40438;52.992;18.604;2023-06-10T02:18:28;7.93;;;4.47;;
54539;SDS011;40438;52.992;18.604;2023-06-10T02:20:54;7.57;;;4.97;;
54539;SDS011;40438;52.992;18.604;2023-06-10T02:23:21;6.35;;;4.53;;
54539;SDS011;40438;52.992;18.604;2023-06-10T02:25:47;8.15;;;4.68;;
54539;SDS011;40438;52.992;18.604;2023-06-10T02:28:13;7.47;;;4.82;;
54539;SDS011;40438;52.992;18.604;2023-06-10T02:30:40;7.38;;;4.70;;
54539;SDS011;40438;52.992;18.604;2023-06-10T02:33:07;7.50;;;4.30;;
54539;SDS011;40438;52.992;18.604;2023-06-10T02:35:33;6.20;;;4.47;;
54539;SDS011;40438;52.992;18.604;2023-06-10T02:37:59;9.32;;;4.38;;
54539;SDS011;40438;52.992;18.604;2023-06-10T02:40:25;9.98;;;4.90;;
54539;SDS011;40438;52.992;18.604;2023-06-10T02:42:51;7.47;;;4.82;;
54539;SDS011;40438;52.992;18.604;2023-06-10T02:45:17;11.52;;;4.35;;
54539;SDS011;40438;52.992;18.604;2023-06-10T02:47:44;7.93;;;4.45;;
54539;SDS011;40438;52.992;18.604;2023-06-10T02:50:11;6.03;;;4.20;;
54539;SDS011;40438;52.992;18.604;2023-06-10T02:52:48;7.55;;;4.18;;
54539;SDS011;40438;52.992;18.604;2023-06-10T02:55:14;7.22;;;4.00;;
54539;SDS011;40438;52.992;18.604;2023-06-10T02:57:46;8.70;;;4.13;;
54539;SDS011;40438;52.992;18.604;2023-06-10T03:00:12;9.02;;;4.40;;
54539;SDS011;40438;52.992;18.604;2023-06-10T03:02:40;7.68;;;5.00;;
54539;SDS011;40438;52.992;18.604;2023-06-10T03:05:09;8.30;;;4.97;;
54539;SDS011;40438;52.992;18.604;2023-06-10T03:07:38;10.07;;;5.40;;
54539;SDS011;40438;52.992;18.604;2023-06-10T03:10:04;11.55;;;4.82;;
54539;SDS011;40438;52.992;18.604;2023-06-10T03:12:31;8.15;;;4.45;;
54539;SDS011;40438;52.992;18.604;2023-06-10T03:14:57;10.35;;;4.40;;
54539;SDS011;40438;52.992;18.604;2023-06-10T03:17:23;9.52;;;4.68;;
54539;SDS011;40438;52.992;18.604;2023-06-10T03:19:49;12.45;;;4.88;;
54539;SDS011;40438;52.992;18.604;2023-06-10T03:22:16;15.23;;;5.20;;
54539;SDS011;40438;52.992;18.604;2023-06-10T03:24:59;8.50;;;4.50;;
54539;SDS011;40438;52.992;18.604;2023-06-10T03:27:24;11.32;;;4.55;;
54539;SDS011;40438;52.992;18.604;2023-06-10T03:29:54;8.82;;;4.28;;
54539;SDS011;40438;52.992;18.604;2023-06-10T03:32:20;8.52;;;4.13;;
54539;SDS011;40438;52.992;18.604;2023-06-10T03:34:45;7.47;;;3.95;;
54539;SDS011;40438;52.992;18.604;2023-06-10T03:37:12;10.48;;;4.60;;
54539;SDS011;40438;52.992;18.604;2023-06-10T03:39:39;12.57;;;5.07;;
54539;SDS011;40438;52.992;18.604;2023-06-10T03:42:07;7.03;;;4.00;;
54539;SDS011;40438;52.992;18.604;2023-06-10T03:44:33;9.93;;;4.40;;
54539;SDS011;40438;52.992;18.604;2023-06-10T03:46:59;9.07;;;4.60;;
54539;SDS011;40438;52.992;18.604;2023-06-10T03:49:25;9.98;;;4.72;;
54539;SDS011;40438;52.992;18.604;2023-06-10T03:51:51;7.15;;;4.30;;
54539;SDS011;40438;52.992;18.604;2023-06-10T03:54:17;7.00;;;4.03;;
54539;SDS011;40438;52.992;18.604;2023-06-10T03:56:44;7.28;;;3.70;;
54539;SDS011;40438;52.992;18.604;2023-06-10T03:59:10;7.07;;;3.80;;
54539;SDS011;40438;52.992;18.604;2023-06-10T04:01:36;6.82;;;4.18;;
54539;SDS011;40438;52.992;18.604;2023-06-10T04:04:02;7.68;;;4.38;;
54539;SDS011;40438;52.992;18.604;2023-06-10T04:06:28;7.93;;;4.05;;
54539;SDS011;40438;52.992;18.604;2023-06-10T04:08:54;6.70;;;4.13;;
54539;SDS011;40438;52.992;18.604;2023-06-10T04:11:19;8.38;;;3.83;;
54539;SDS011;40438;52.992;18.604;2023-06-10T04:13:47;13.77;;;4.28;;
54539;SDS011;40438;52.992;18.604;2023-06-10T04:16:14;8.43;;;3.97;;
54539;SDS011;40438;52.992;18.604;2023-06-10T04:18:40;6.07;;;3.83;;
54539;SDS011;40438;52.992;18.604;2023-06-10T04:21:07;7.05;;;3.95;;
54539;SDS011;40438;52.992;18.604;2023-06-10T04:23:33;6.32;;;3.63;;
54539;SDS011;40438;52.992;18.604;2023-06-10T04:25:59;12.20;;;3.80;;
54539;SDS011;40438;52.992;18.604;2023-06-10T04:28:25;7.53;;;3.50;;
54539;SDS011;40438;52.992;18.604;2023-06-10T04:30:53;7.20;;;3.80;;
54539;SDS011;40438;52.992;18.604;2023-06-10T04:33:19;8.90;;;3.58;;
54539;SDS011;40438;52.992;18.604;2023-06-10T04:35:44;7.25;;;3.92;;
54539;SDS011;40438;52.992;18.604;2023-06-10T04:38:12;10.82;;;3.88;;
54539;SDS011;40438;52.992;18.604;2023-06-10T04:40:38;9.88;;;3.80;;
54539;SDS011;40438;52.992;18.604;2023-06-10T04:43:04;7.45;;;4.18;;
54539;SDS011;40438;52.992;18.604;2023-06-10T04:45:31;8.20;;;3.72;;
54539;SDS011;40438;52.992;18.604;2023-06-10T04:47:59;6.25;;;3.60;;
54539;SDS011;40438;52.992;18.604;2023-06-10T04:50:26;6.80;;;3.28;;
54539;SDS011;40438;52.992;18.604;2023-06-10T04:52:52;10.30;;;3.70;;
54539;SDS011;40438;52.992;18.604;2023-06-10T04:55:18;6.25;;;3.17;;
54539;SDS011;40438;52.992;18.604;2023-06-10T04:57:44;6.80;;;3.30;;
54539;SDS011;40438;52.992;18.604;2023-06-10T05:00:10;7.32;;;3.80;;
54539;SDS011;40438;52.992;18.604;2023-06-10T05:02:36;7.97;;;3.55;;
54539;SDS011;40438;52.992;18.604;2023-06-10T05:05:03;8.10;;;3.20;;
54539;SDS011;40438;52.992;18.604;2023-06-10T05:07:29;8.20;;;4.15;;
54539;SDS011;40438;52.992;18.604;2023-06-10T05:09:55;8.00;;;3.90;;
54539;SDS011;40438;52.992;18.604;2023-06-10T05:12:21;5.20;;;3.50;;
54539;SDS011;40438;52.992;18.604;2023-06-10T05:14:47;11.57;;;4.15;;
54539;SDS011;40438;52.992;18.604;2023-06-10T05:17:13;10.70;;;4.78;;
54539;SDS011;40438;52.992;18.604;2023-06-10T05:19:39;7.80;;;3.80;;
54539;SDS011;40438;52.992;18.604;2023-06-10T05:22:06;12.40;;;3.63;;
54539;SDS011;40438;52.992;18.604;2023-06-10T05:24:32;13.25;;;3.83;;
54539;SDS011;40438;52.992;18.604;2023-06-10T05:26:57;9.63;;;4.32;;
54539;SDS011;40438;52.992;18.604;2023-06-10T05:29:23;9.45;;;4.20;;
54539;SDS011;40438;52.992;18.604;2023-06-10T05:31:49;9.15;;;3.50;;
54539;SDS011;40438;52.992;18.604;2023-06-10T05:34:15;7.45;;;3.75;;
54539;SDS011;40438;52.992;18.604;2023-06-10T05:36:40;7.78;;;3.60;;
54539;SDS011;40438;52.992;18.604;2023-06-10T05:39:08;8.00;;;3.80;;
54539;SDS011;40438;52.992;18.604;2023-06-10T05:41:34;9.43;;;3.92;;
54539;SDS011;40438;52.992;18.604;2023-06-10T05:44:00;6.05;;;3.72;;
54539;SDS011;40438;52.992;18.604;2023-06-10T05:46:26;9.05;;;3.53;;
54539;SDS011;40438;52.992;18.604;2023-06-10T05:48:52;12.02;;;4.18;;
54539;SDS011;40438;52.992;18.604;2023-06-10T05:51:17;8.20;;;3.78;;
54539;SDS011;40438;52.992;18.604;2023-06-10T05:53:43;7.65;;;4.25;;
54539;SDS011;40438;52.992;18.604;2023-06-10T05:56:10;6.53;;;3.88;;
54539;SDS011;40438;52.992;18.604;2023-06-10T05:58:37;7.47;;;3.92;;
54539;SDS011;40438;52.992;18.604;2023-06-10T06:01:03;10.25;;;3.80;;
54539;SDS011;40438;52.992;18.604;2023-06-10T06:03:28;8.43;;;4.10;;
54539;SDS011;40438;52.992;18.604;2023-06-10T06:05:54;7.40;;;3.70;;
54539;SDS011;40438;52.992;18.604;2023-06-10T06:08:20;9.73;;;4.35;;
54539;SDS011;40438;52.992;18.604;2023-06-10T06:10:46;7.25;;;3.72;;
54539;SDS011;40438;52.992;18.604;2023-06-10T06:13:13;10.95;;;4.07;;
54539;SDS011;40438;52.992;18.604;2023-06-10T06:15:39;8.38;;;4.40;;
54539;SDS011;40438;52.992;18.604;2023-06-10T06:18:05;6.20;;;3.83;;
54539;SDS011;40438;52.992;18.604;2023-06-10T06:20:30;6.25;;;3.40;;
54539;SDS011;40438;52.992;18.604;2023-06-10T06:22:56;7.10;;;3.85;;
54539;SDS011;40438;52.992;18.604;2023-06-10T06:25:22;6.13;;;3.80;;
54539;SDS011;40438;52.992;18.604;2023-06-10T06:27:48;9.63;;;3.25;;
54539;SDS011;40438;52.992;18.604;2023-06-10T06:30:15;12.95;;;3.88;;
54539;SDS011;40438;52.992;18.604;2023-06-10T06:32:42;7.70;;;3.95;;
54539;SDS011;40438;52.992;18.604;2023-06-10T06:35:08;9.65;;;3.90;;
54539;SDS011;40438;52.992;18.604;2023-06-10T06:37:34;7.22;;;3.33;;
54539;SDS011;40438;52.992;18.604;2023-06-10T06:40:13;7.88;;;3.60;;
54539;SDS011;40438;52.992;18.604;2023-06-10T06:42:39;7.30;;;3.83;;
54539;SDS011;40438;52.992;18.604;2023-06-10T06:45:25;7.70;;;3.33;;
54539;SDS011;40438;52.992;18.604;2023-06-10T06:47:51;10.57;;;4.40;;
54539;SDS011;40438;52.992;18.604;2023-06-10T06:50:17;10.00;;;4.10;;
54539;SDS011;40438;52.992;18.604;2023-06-10T06:52:43;7.15;;;3.67;;
54539;SDS011;40438;52.992;18.604;2023-06-10T06:55:08;5.90;;;3.60;;
54539;SDS011;40438;52.992;18.604;2023-06-10T06:57:34;13.35;;;3.80;;
54539;SDS011;40438;52.992;18.604;2023-06-10T07:00:00;6.43;;;3.25;;
54539;SDS011;40438;52.992;18.604;2023-06-10T07:02:27;7.63;;;3.42;;
54539;SDS011;40438;52.992;18.604;2023-06-10T07:04:53;6.63;;;3.53;;
54539;SDS011;40438;52.992;18.604;2023-06-10T07:07:19;5.55;;;3.53;;
54539;SDS011;40438;52.992;18.604;2023-06-10T07:09:45;6.88;;;4.13;;
54539;SDS011;40438;52.992;18.604;2023-06-10T07:12:10;6.15;;;3.70;;
54539;SDS011;40438;52.992;18.604;2023-06-10T07:14:36;6.68;;;3.30;;
54539;SDS011;40438;52.992;18.604;2023-06-10T07:17:02;7.70;;;3.17;;
54539;SDS011;40438;52.992;18.604;2023-06-10T07:19:29;11.27;;;4.15;;
54539;SDS011;40438;52.992;18.604;2023-06-10T07:21:55;5.68;;;3.28;;
54539;SDS011;40438;52.992;18.604;2023-06-10T07:24:21;8.43;;;3.35;;
54539;SDS011;40438;52.992;18.604;2023-06-10T07:26:47;5.40;;;3.55;;
54539;SDS011;40438;52.992;18.604;2023-06-10T07:29:12;5.78;;;3.28;;
54539;SDS011;40438;52.992;18.604;2023-06-10T07:31:38;12.35;;;3.35;;
54539;SDS011;40438;52.992;18.604;2023-06-10T07:34:06;11.45;;;3.35;;
54539;SDS011;40438;52.992;18.604;2023-06-10T07:36:33;7.70;;;3.45;;
54539;SDS011;40438;52.992;18.604;2023-06-10T07:38:59;6.22;;;3.15;;
54539;SDS011;40438;52.992;18.604;2023-06-10T07:41:25;7.90;;;3.38;;
54539;SDS011;40438;52.992;18.604;2023-06-10T07:43:50;9.68;;;3.65;;
54539;SDS011;40438;52.992;18.604;2023-06-10T07:46:18;7.07;;;3.33;;
54539;SDS011;40438;52.992;18.604;2023-06-10T07:48:43;6.88;;;3.15;;
54539;SDS011;40438;52.992;18.604;2023-06-10T07:51:09;8.15;;;3.50;;
54539;SDS011;40438;52.992;18.604;2023-06-10T07:53:36;6.45;;;2.88;;
54539;SDS011;40438;52.992;18.604;2023-06-10T07:56:02;6.22;;;3.50;;
54539;SDS011;40438;52.992;18.604;2023-06-10T07:58:28;5.05;;;3.45;;
54539;SDS011;40438;52.992;18.604;2023-06-10T08:00:54;4.38;;;3.00;;
54539;SDS011;40438;52.992;18.604;2023-06-10T08:03:20;8.25;;;3.58;;
54539;SDS011;40438;52.992;18.604;2023-06-10T08:05:45;5.35;;;3.40;;
54539;SDS011;40438;52.992;18.604;2023-06-10T08:08:12;6.18;;;3.30;;
54539;SDS011;40438;52.992;18.604;2023-06-10T08:10:39;5.00;;;3.08;;
54539;SDS011;40438;52.992;18.604;2023-06-10T08:13:05;6.50;;;3.35;;
54539;SDS011;40438;52.992;18.604;2023-06-10T08:15:31;8.05;;;3.42;;
54539;SDS011;40438;52.992;18.604;2023-06-10T08:17:57;10.40;;;3.47;;
54539;SDS011;40438;52.992;18.604;2023-06-10T08:20:23;8.32;;;3.33;;
54539;SDS011;40438;52.992;18.604;2023-06-10T08:22:50;11.07;;;3.42;;
54539;SDS011;40438;52.992;18.604;2023-06-10T08:25:15;5.47;;;3.15;;
54539;SDS011;40438;52.992;18.604;2023-06-10T08:27:42;4.85;;;3.33;;
54539;SDS011;40438;52.992;18.604;2023-06-10T08:30:09;10.23;;;4.15;;
54539;SDS011;40438;52.992;18.604;2023-06-10T08:32:35;9.02;;;3.13;;
54539;SDS011;40438;52.992;18.604;2023-06-10T08:35:01;6.03;;;3.05;;
54539;SDS011;40438;52.992;18.604;2023-06-10T08:37:26;9.50;;;3.03;;
54539;SDS011;40438;52.992;18.604;2023-06-10T08:39:52;8.15;;;3.95;;
54539;SDS011;40438;52.992;18.604;2023-06-10T08:42:19;11.60;;;4.93;;
54539;SDS011;40438;52.992;18.604;2023-06-10T08:44:49;8.40;;;3.53;;
54539;SDS011;40438;52.992;18.604;2023-06-10T08:47:19;5.72;;;3.05;;
54539;SDS011;40438;52.992;18.604;2023-06-10T08:49:47;5.82;;;3.30;;
54539;SDS011;40438;52.992;18.604;2023-06-10T08:52:14;7.03;;;2.97;;
54539;SDS011;40438;52.992;18.604;2023-06-10T08:54:42;6.20;;;3.38;;
54539;SDS011;40438;52.992;18.604;2023-06-10T08:57:11;5.57;;;2.88;;
54539;SDS011;40438;52.992;18.604;2023-06-10T08:59:38;5.05;;;2.72;;
54539;SDS011;40438;52.992;18.604;2023-06-10T09:02:06;4.40;;;2.50;;
54539;SDS011;40438;52.992;18.604;2023-06-10T09:04:34;4.38;;;2.92;;
54539;SDS011;40438;52.992;18.604;2023-06-10T09:07:01;4.85;;;3.38;;
54539;SDS011;40438;52.992;18.604;2023-06-10T09:09:28;5.18;;;3.00;;
54539;SDS011;40438;52.992;18.604;2023-06-10T09:11:54;7.22;;;2.83;;
54539;SDS011;40438;52.992;18.604;2023-06-10T09:14:20;4.05;;;2.70;;
54539;SDS011;40438;52.992;18.604;2023-06-10T09:16:45;5.15;;;3.20;;
54539;SDS011;40438;52.992;18.604;2023-06-10T09:19:12;10.07;;;2.60;;
54539;SDS011;40438;52.992;18.604;2023-06-10T09:21:40;5.22;;;2.70;;
54539;SDS011;40438;52.992;18.604;2023-06-10T09:24:06;11.00;;;2.92;;
54539;SDS011;40438;52.992;18.604;2023-06-10T09:26:32;5.10;;;2.50;;
54539;SDS011;40438;52.992;18.604;2023-06-10T09:29:04;7.65;;;2.63;;
54539;SDS011;40438;52.992;18.604;2023-06-10T09:31:31;4.60;;;2.40;;
54539;SDS011;40438;52.992;18.604;2023-06-10T09:34:06;11.48;;;2.97;;
54539;SDS011;40438;52.992;18.604;2023-06-10T09:36:34;10.02;;;2.80;;
54539;SDS011;40438;52.992;18.604;2023-06-10T09:39:01;4.18;;;2.55;;
54539;SDS011;40438;52.992;18.604;2023-06-10T09:41:31;5.25;;;2.50;;
54539;SDS011;40438;52.992;18.604;2023-06-10T09:43:57;4.43;;;3.05;;
54539;SDS011;40438;52.992;18.604;2023-06-10T09:46:25;4.90;;;2.80;;
54539;SDS011;40438;52.992;18.604;2023-06-10T09:48:56;3.47;;;2.53;;
54539;SDS011;40438;52.992;18.604;2023-06-10T09:51:23;8.98;;;2.70;;
54539;SDS011;40438;52.992;18.604;2023-06-10T09:53:51;14.00;;;2.85;;
54539;SDS011;40438;52.992;18.604;2023-06-10T09:56:17;5.72;;;2.83;;
54539;SDS011;40438;52.992;18.604;2023-06-10T09:58:44;5.78;;;2.47;;
54539;SDS011;40438;52.992;18.604;2023-06-10T10:01:10;4.75;;;2.42;;
54539;SDS011;40438;52.992;18.604;2023-06-10T10:03:45;7.60;;;2.65;;
54539;SDS011;40438;52.992;18.604;2023-06-10T10:06:11;5.00;;;2.42;;
54539;SDS011;40438;52.992;18.604;2023-06-10T10:08:37;7.93;;;2.95;;
54539;SDS011;40438;52.992;18.604;2023-06-10T10:11:04;8.35;;;2.67;;
54539;SDS011;40438;52.992;18.604;2023-06-10T10:13:30;7.10;;;3.13;;
54539;SDS011;40438;52.992;18.604;2023-06-10T10:15:59;4.40;;;2.53;;
54539;SDS011;40438;52.992;18.604;2023-06-10T10:18:28;6.60;;;2.60;;
54539;SDS011;40438;52.992;18.604;2023-06-10T10:20:56;4.18;;;2.63;;
54539;SDS011;40438;52.992;18.604;2023-06-10T10:23:26;7.80;;;2.40;;
54539;SDS011;40438;52.992;18.604;2023-06-10T10:25:59;4.88;;;2.35;;
54539;SDS011;40438;52.992;18.604;2023-06-10T10:28:29;6.82;;;2.65;;
54539;SDS011;40438;52.992;18.604;2023-06-10T10:31:07;6.57;;;2.50;;
54539;SDS011;40438;52.992;18.604;2023-06-10T10:33:36;9.63;;;2.97;;
54539;SDS011;40438;52.992;18.604;2023-06-10T10:36:07;2.78;;;2.03;;
54539;SDS011;40438;52.992;18.604;2023-06-10T10:38:34;10.00;;;2.42;;
54539;SDS011;40438;52.992;18.604;2023-06-10T10:41:01;4.72;;;2.65;;
54539;SDS011;40438;52.992;18.604;2023-06-10T10:43:29;3.88;;;2.30;;
54539;SDS011;40438;52.992;18.604;2023-06-10T10:45:57;3.92;;;2.70;;
54539;SDS011;40438;52.992;18.604;2023-06-10T10:48:24;3.90;;;2.50;;
54539;SDS011;40438;52.992;18.604;2023-06-10T10:50:55;10.00;;;4.50;;
54539;SDS011;40438;52.992;18.604;2023-06-10T10:53:22;7.60;;;4.45;;
54539;SDS011;40438;52.992;18.604;2023-06-10T10:55:57;6.43;;;3.00;;
54539;SDS011;40438;52.992;18.604;2023-06-10T10:58:24;5.35;;;2.47;;
54539;SDS011;40438;52.992;18.604;2023-06-10T11:00:51;6.75;;;2.22;;
54539;SDS011;40438;52.992;18.604;2023-06-10T11:03:17;8.63;;;2.35;;
54539;SDS011;40438;52.992;18.604;2023-06-10T11:05:43;4.25;;;2.30;;
54539;SDS011;40438;52.992;18.604;2023-06-10T11:08:10;6.75;;;2.00;;
54539;SDS011;40438;52.992;18.604;2023-06-10T11:10:37;5.15;;;2.13;;
54539;SDS011;40438;52.992;18.604;2023-06-10T11:13:07;5.30;;;2.00;;
54539;SDS011;40438;52.992;18.604;2023-06-10T11:15:37;6.18;;;1.95;;
54539;SDS011;40438;52.992;18.604;2023-06-10T11:18:09;5.22;;;2.35;;
54539;SDS011;40438;52.992;18.604;2023-06-10T11:20:51;4.30;;;2.20;;
54539;SDS011;40438;52.992;18.604;2023-06-10T11:23:40;3.13;;;2.20;;
54539;SDS011;40438;52.992;18.604;2023-06-10T13:43:22;4.47;;;2.50;;
54539;SDS011;40438;52.992;18.604;2023-06-10T13:45:48;6.07;;;2.00;;
54539;SDS011;40438;52.992;18.604;2023-06-10T13:48:13;5.15;;;2.22;;
54539;SDS011;40438;52.992;18.604;2023-06-10T13:50:39;8.50;;;2.25;;
54539;SDS011;40438;52.992;18.604;2023-06-10T13:53:05;6.10;;;2.03;;
54539;SDS011;40438;52.992;18.604;2023-06-10T13:55:31;5.22;;;2.13;;
54539;SDS011;40438;52.992;18.604;2023-06-10T13:57:58;3.95;;;2.30;;
54539;SDS011;40438;52.992;18.604;2023-06-10T14:00:24;7.13;;;2.50;;
54539;SDS011;40438;52.992;18.604;2023-06-10T14:02:50;7.10;;;2.38;;
54539;SDS011;40438;52.992;18.604;2023-06-10T14:05:16;5.15;;;2.08;;
54539;SDS011;40438;52.992;18.604;2023-06-10T14:07:41;4.10;;;2.10;;
54539;SDS011;40438;52.992;18.604;2023-06-10T14:10:07;5.80;;;2.20;;
54539;SDS011;40438;52.992;18.604;2023-06-10T14:12:33;3.78;;;1.88;;
54539;SDS011;40438;52.992;18.604;2023-06-10T14:15:01;6.82;;;2.40;;
54539;SDS011;40438;52.992;18.604;2023-06-10T14:17:27;6.05;;;2.33;;
54539;SDS011;40438;52.992;18.604;2023-06-10T14:19:52;4.03;;;1.98;;
54539;SDS011;40438;52.992;18.604;2023-06-10T14:22:18;5.07;;;2.20;;
54539;SDS011;40438;52.992;18.604;2023-06-10T14:24:44;3.95;;;2.00;;
54539;SDS011;40438;52.992;18.604;2023-06-10T14:27:10;2.95;;;1.92;;
54539;SDS011;40438;52.992;18.604;2023-06-10T14:29:35;2.53;;;2.10;;
54539;SDS011;40438;52.992;18.604;2023-06-10T14:32:03;8.18;;;2.72;;
54539;SDS011;40438;52.992;18.604;2023-06-10T14:34:29;3.40;;;1.95;;
54539;SDS011;40438;52.992;18.604;2023-06-10T14:36:55;2.03;;;1.83;;
54539;SDS011;40438;52.992;18.604;2023-06-10T14:39:21;2.78;;;1.60;;
54539;SDS011;40438;52.992;18.604;2023-06-10T14:41:46;3.67;;;2.10;;
54539;SDS011;40438;52.992;18.604;2023-06-10T14:44:12;3.10;;;2.13;;
54539;SDS011;40438;52.992;18.604;2023-06-10T14:46:38;4.80;;;2.08;;
54539;SDS011;40438;52.992;18.604;2023-06-10T14:49:05;2.42;;;1.83;;
54539;SDS011;40438;52.992;18.604;2023-06-10T14:51:31;2.30;;;1.83;;
54539;SDS011;40438;52.992;18.604;2023-06-10T14:53:57;5.45;;;2.78;;
54539;SDS011;40438;52.992;18.604;2023-06-10T14:56:22;5.43;;;2.47;;
54539;SDS011;40438;52.992;18.604;2023-06-10T14:58:48;2.20;;;1.90;;
54539;SDS011;40438;52.992;18.604;2023-06-10T15:01:14;3.47;;;1.70;;
54539;SDS011;40438;52.992;18.604;2023-06-10T15:03:40;3.35;;;1.90;;
54539;SDS011;40438;52.992;18.604;2023-06-10T15:06:07;4.63;;;2.00;;
54539;SDS011;40438;52.992;18.604;2023-06-10T15:08:33;4.57;;;2.10;;
54539;SDS011;40438;52.992;18.604;2023-06-10T15:10:58;2.50;;;1.98;;
54539;SDS011;40438;52.992;18.604;2023-06-10T15:13:24;2.75;;;1.98;;
54539;SDS011;40438;52.992;18.604;2023-06-10T15:15:50;2.97;;;1.80;;
54539;SDS011;40438;52.992;18.604;2023-06-10T15:18:16;2.00;;;1.52;;
54539;SDS011;40438;52.992;18.604;2023-06-10T15:20:41;5.40;;;2.15;;
54539;SDS011;40438;52.992;18.604;2023-06-10T15:23:08;3.22;;;1.58;;
54539;SDS011;40438;52.992;18.604;2023-06-10T15:25:34;8.15;;;1.90;;
54539;SDS011;40438;52.992;18.604;2023-06-10T15:28:00;5.47;;;1.70;;
54539;SDS011;40438;52.992;18.604;2023-06-10T15:30:26;3.72;;;1.90;;
54539;SDS011;40438;52.992;18.604;2023-06-10T15:32:52;3.47;;;1.98;;
54539;SDS011;40438;52.992;18.604;2023-06-10T15:35:17;5.28;;;2.00;;
54539;SDS011;40438;52.992;18.604;2023-06-10T15:37:43;7.25;;;2.67;;
54539;SDS011;40438;52.992;18.604;2023-06-10T15:40:11;4.35;;;2.10;;
54539;SDS011;40438;52.992;18.604;2023-06-10T15:42:37;4.80;;;2.20;;
54539;SDS011;40438;52.992;18.604;2023-06-10T15:45:03;2.35;;;1.75;;
54539;SDS011;40438;52.992;18.604;2023-06-10T15:47:29;4.47;;;1.92;;
54539;SDS011;40438;52.992;18.604;2023-06-10T15:49:55;5.57;;;1.73;;
54539;SDS011;40438;52.992;18.604;2023-06-10T15:52:20;4.38;;;1.73;;
54539;SDS011;40438;52.992;18.604;2023-06-10T15:54:46;4.05;;;1.88;;
54539;SDS011;40438;52.992;18.604;2023-06-10T15:57:13;5.25;;;1.90;;
54539;SDS011;40438;52.992;18.604;2023-06-10T15:59:39;6.03;;;1.77;;
54539;SDS011;40438;52.992;18.604;2023-06-10T16:02:05;2.28;;;1.75;;
54539;SDS011;40438;52.992;18.604;2023-06-10T16:04:31;8.25;;;1.92;;
54539;SDS011;40438;52.992;18.604;2023-06-10T16:06:56;2.20;;;1.70;;
54539;SDS011;40438;52.992;18.604;2023-06-10T16:09:22;2.65;;;1.75;;
54539;SDS011;40438;52.992;18.604;2023-06-10T16:11:48;3.72;;;1.63;;
54539;SDS011;40438;52.992;18.604;2023-06-10T16:14:15;4.35;;;2.03;;
54539;SDS011;40438;52.992;18.604;2023-06-10T16:16:41;4.18;;;2.15;;
54539;SDS011;40438;52.992;18.604;2023-06-10T16:19:07;3.35;;;1.83;;
54539;SDS011;40438;52.992;18.604;2023-06-10T16:21:33;2.97;;;2.00;;
54539;SDS011;40438;52.992;18.604;2023-06-10T16:23:58;5.63;;;1.90;;
54539;SDS011;40438;52.992;18.604;2023-06-10T16:26:24;3.72;;;1.90;;
54539;SDS011;40438;52.992;18.604;2023-06-10T16:28:50;4.38;;;2.17;;
54539;SDS011;40438;52.992;18.604;2023-06-10T16:31:17;4.10;;;1.70;;
54539;SDS011;40438;52.992;18.604;2023-06-10T16:33:43;1.90;;;1.52;;
54539;SDS011;40438;52.992;18.604;2023-06-10T16:36:09;6.30;;;1.98;;
54539;SDS011;40438;52.992;18.604;2023-06-10T16:38:34;5.45;;;2.00;;
54539;SDS011;40438;52.992;18.604;2023-06-10T16:41:00;5.60;;;2.13;;
54539;SDS011;40438;52.992;18.604;2023-06-10T16:43:26;5.45;;;1.90;;
54539;SDS011;40438;52.992;18.604;2023-06-10T16:45:52;5.93;;;1.60;;
54539;SDS011;40438;52.992;18.604;2023-06-10T16:48:19;3.03;;;1.90;;